Opelousas, LA (70570)

12:58 AM CDT on August 31, 2016 (GMT -0500)
Gulino Street | | Change Station

Elev 72 ft 30.55 °N, 92.07 °W | Updated 4 seconds ago

Clear
Clear
77.4 °F
Feels Like 79 °F
N
0.0
Wind Variable Wind from South
Gusts 0.0 mph

Today
High -- | Low -- °F
--% Chance of Precip.
Yesterday
High -- | Low -- °F
Precip. -- in
Pressure 29.93 in
Visibility 10.0 miles
Clouds Clear
Heat Index 79 °F
Dew Point 75 °F
Humidity 93%
Rainfall 0.00 in
Snow Depth Not available.
6:44 AM 7:31 PM
Waning Crescent, 1% visible
METAR KOPL 310535Z AUTO 29005KT 10SM CLR 24/24 A2993 RMK AO2 T02440238 PWINO
Pressure 29.93 in
Visibility 10.0 miles
Clouds Clear
Heat Index 79 °F
Dew Point 75 °F
Humidity 93%
Rainfall 0.00 in
Snow Depth Not available.
6:44 AM 7:31 PM
Waning Crescent, 1% visible
METAR KOPL 310535Z AUTO 29005KT 10SM CLR 24/24 A2993 RMK AO2 T02440238 PWINO

10-Day Weather Forecast

Almanac

Astronomy

Aug. 31, 2016 Rise Set
Actual Time
Civil Twilight
Nautical Twilight
Astronomical Twilight
Moon
Length of Visible Light
Length of Day
Tomorrow will be .
, % of the Moon is Illuminated

Today's Extremes

State Highs State Lows

Community

WunderPhotos

Upload Photos

1,936,040 photos uploaded!

WunderBlog® & News

Nearby

Air Quality

  Air Quality AQ Index Pollutant
Not available.

Snow Depth

Station Depth Elevation

Earthquake Activity

City Distance Mag. Time & Date
Minimum magnitude displayed is 2.5.

Coastal Water Temperatures

Place Temperature

Stations

Nearby Weather Stations

Station Location Temp. Windchill Dew Point Humidity Wind Precip. Elev Updated Type
                   

Watches & Warnings

There are currently no watches in effect.